Time;durP1;ratioP1;P1;durP2;ratioP2;P2;SDS_P1;SDS_P2;PMS_P1;PMS_P2;Temp;Humidity;BMP_temperature;BMP_pressure;BME280_temperature;BME280_humidity;BME280_pressure;Samples;Min_cycle;Max_cycle;Signal;HPM_P1;HPM_P2
2022/08/24 00:01:27;;;;;;;2.50;1.40;;;;;;;17.85;91.77;100973.41;5188597;28;20112;-72
2022/08/24 00:03:58;;;;;;;3.95;1.70;;;;;;;17.90;91.54;100968.69;5186919;28;20722;-73
2022/08/24 00:06:28;;;;;;;4.35;1.50;;;;;;;17.94;91.85;100970.19;5188323;28;20025;-72
2022/08/24 00:08:59;;;;;;;8.43;1.45;;;;;;;17.98;90.46;100975.22;5187224;28;20076;-73
2022/08/24 00:11:30;;;;;;;3.42;1.45;;;;;;;17.92;91.75;100969.44;5189459;28;20029;-72
2022/08/24 00:14:00;;;;;;;4.18;1.30;;;;;;;17.83;92.44;100976.13;5187765;28;20487;-73
2022/08/24 00:16:30;;;;;;;3.70;1.48;;;;;;;17.90;92.50;100976.63;5187448;28;20026;-73
2022/08/24 00:19:01;;;;;;;5.30;1.75;;;;;;;17.82;91.72;100978.88;5179400;28;20042;-72
2022/08/24 00:21:32;;;;;;;5.22;1.40;;;;;;;17.77;92.32;100972.97;5185766;28;20500;-73
2022/08/24 00:24:03;;;;;;;3.10;1.30;;;;;;;17.83;92.54;100973.47;5189971;28;20040;-71
2022/08/24 00:26:34;;;;;;;4.78;1.30;;;;;;;18.03;90.39;100964.38;5187506;28;20021;-72
2022/08/24 00:29:04;;;;;;;2.97;1.35;;;;;;;18.07;90.65;100957.94;5187611;28;20375;-72
2022/08/24 00:31:35;;;;;;;4.55;1.40;;;;;;;17.92;91.14;100964.16;5178265;28;20037;-72
2022/08/24 00:34:05;;;;;;;4.30;1.63;;;;;;;17.70;92.62;100961.94;5186505;28;20029;-72
2022/08/24 00:36:36;;;;;;;3.97;1.63;;;;;;;17.79;92.66;100957.91;5185441;28;20029;-71
2022/08/24 00:39:07;;;;;;;6.18;1.60;;;;;;;17.71;93.22;100965.41;5191886;28;20309;-72
2022/08/24 00:41:43;;;;;;;3.92;1.48;;;;;;;17.81;92.29;100956.03;5191510;28;20104;-72
2022/08/24 00:44:15;;;;;;;5.25;1.42;;;;;;;17.75;91.72;100965.16;5207640;23;20471;-76
2022/08/24 00:46:53;;;;;;;4.20;1.33;;;;;;;17.65;92.67;100961.34;5190414;28;20045;-77
2022/08/24 00:49:43;;;;;;;3.53;1.73;;;;;;;17.43;94.54;100960.00;5178673;28;20026;-77
2022/08/24 00:52:24;;;;;;;6.25;1.52;;;;;;;17.42;95.54;100963.59;5188741;28;20033;-76
2022/08/24 00:55:00;;;;;;;4.13;1.30;;;;;;;17.44;94.98;100956.44;5187022;28;20033;-77
2022/08/24 00:57:34;;;;;;;4.45;1.50;;;;;;;17.40;96.13;100968.13;5192530;28;20029;-77
2022/08/24 01:00:13;;;;;;;4.45;1.60;;;;;;;17.43;94.08;100960.00;5191220;28;20076;-77
2022/08/24 01:02:47;;;;;;;5.28;1.65;;;;;;;17.44;93.78;100956.44;5190174;28;20022;-77
2022/08/24 01:05:18;;;;;;;3.65;1.40;;;;;;;17.49;92.71;100957.88;5193084;28;20109;-77
2022/08/24 01:07:49;;;;;;;4.30;1.48;;;;;;;17.08;95.97;100964.63;5191562;28;20128;-77
2022/08/24 01:10:23;;;;;;;6.22;1.70;;;;;;;17.07;96.09;100967.34;5195269;28;20479;-77
2022/08/24 01:12:57;;;;;;;2.78;1.27;;;;;;;17.14;95.10;100974.84;5188205;28;20646;-77
2022/08/24 01:15:29;;;;;;;3.33;1.35;;;;;;;17.22;94.40;100974.41;5189543;28;20498;-77
2022/08/24 01:21:02;;;;;;;4.93;1.50;;;;;;;16.96;97.61;100975.88;5192946;28;20187;-78
2022/08/24 01:23:49;;;;;;;5.63;1.48;;;;;;;17.20;94.01;100973.66;5189841;28;20037;-78
2022/08/24 01:26:25;;;;;;;4.15;1.77;;;;;;;17.20;94.05;100974.53;5189779;28;20033;-78
2022/08/24 01:29:01;;;;;;;2.95;1.50;;;;;;;17.13;95.10;100972.31;5185609;28;20030;-78
2022/08/24 01:31:32;;;;;;;4.68;1.67;;;;;;;16.87;97.19;100970.25;5193021;28;20025;-77
2022/08/24 01:34:04;;;;;;;2.28;1.45;;;;;;;16.81;98.93;100973.25;5192695;28;20037;-77
2022/08/24 01:37:03;;;;;;;7.78;1.65;;;;;;;16.75;99.61;100970.91;5192087;28;20197;-77
2022/08/24 01:39:41;;;;;;;3.67;1.58;;;;;;;16.73;98.96;100972.78;5179034;28;20041;-78
2022/08/24 01:42:13;;;;;;;3.92;1.27;;;;;;;16.77;100.00;100972.53;5192916;28;20025;-77
2022/08/24 01:44:44;;;;;;;3.45;1.60;;;;;;;16.82;98.23;100977.59;5186849;28;20026;-78
2022/08/24 01:47:16;;;;;;;3.33;1.75;;;;;;;16.93;96.91;100968.13;5184772;28;20484;-78
2022/08/24 01:49:48;;;;;;;3.63;1.63;;;;;;;16.91;98.23;100977.94;5189032;28;20026;-77
2022/08/24 01:52:22;;;;;;;4.63;1.75;;;;;;;16.96;97.57;100975.03;5191371;28;20025;-77
2022/08/24 01:54:53;;;;;;;4.15;1.60;;;;;;;16.91;97.09;100977.94;5186989;28;20128;-78
2022/08/24 01:57:24;;;;;;;4.32;1.50;;;;;;;16.92;97.66;100973.47;5192756;28;20104;-77
2022/08/24 01:59:55;;;;;;;3.28;1.65;;;;;;;16.96;98.02;100977.69;5189997;28;20030;-77
2022/08/24 02:02:29;;;;;;;5.20;1.70;;;;;;;17.13;95.30;100977.59;5193565;28;20025;-78
2022/08/24 02:05:00;;;;;;;3.70;1.40;;;;;;;16.81;97.25;100973.25;5190252;28;20538;-78
2022/08/24 02:07:31;;;;;;;4.00;1.52;;;;;;;16.54;99.32;100990.56;5191572;28;20336;-77
2022/08/24 02:10:04;;;;;;;6.07;1.70;;;;;;;16.68;97.78;100989.81;5190085;28;20037;-78
2022/08/24 02:12:36;;;;;;;4.22;1.77;;;;;;;16.65;99.40;100984.69;5192212;28;20078;-77
2022/08/24 02:15:08;;;;;;;4.13;1.60;;;;;;;16.73;99.18;100991.25;5188715;28;20446;-78
2022/08/24 02:17:39;;;;;;;3.88;1.77;;;;;;;16.54;100.00;100989.72;5188345;28;20041;-77
2022/08/24 02:20:09;;;;;;;4.85;1.70;;;;;;;16.60;100.00;100990.25;5189226;28;20030;-78
2022/08/24 02:22:40;;;;;;;4.00;1.80;;;;;;;16.88;98.53;100983.38;5190815;28;20145;-77
2022/08/24 02:25:10;;;;;;;5.68;2.08;;;;;;;16.86;98.16;100987.03;5191842;28;20038;-78
2022/08/24 02:27:41;;;;;;;4.53;1.60;;;;;;;16.95;96.31;100976.81;5189683;28;20037;-77
2022/08/24 02:30:11;;;;;;;3.80;1.58;;;;;;;16.93;96.25;100991.03;5191969;28;20021;-78
2022/08/24 02:32:42;;;;;;;4.07;1.38;;;;;;;16.74;96.57;100985.03;5189522;28;20189;-77
2022/08/24 02:35:12;;;;;;;3.63;1.40;;;;;;;16.47;97.49;100993.59;5192024;28;20018;-77
2022/08/24 02:37:43;;;;;;;2.83;1.30;;;;;;;16.39;97.90;100988.72;5188280;28;20022;-77
2022/08/24 02:40:13;;;;;;;1.85;1.30;;;;;;;16.43;95.82;100989.41;5191605;28;20029;-77
2022/08/24 02:42:44;;;;;;;4.43;1.60;;;;;;;16.05;100.00;100990.53;5189836;28;20484;-77
2022/08/24 02:45:15;;;;;;;3.88;1.85;;;;;;;16.06;100.00;100984.31;5184575;28;20026;-77
2022/08/24 02:47:45;;;;;;;4.05;1.90;;;;;;;15.99;100.00;100994.31;5185604;28;20048;-77
2022/08/24 02:50:17;;;;;;;3.28;1.50;;;;;;;15.95;100.00;100984.88;5189313;28;20268;-77
2022/08/24 02:52:47;;;;;;;6.25;1.90;;;;;;;15.91;100.00;100993.00;5190138;28;20079;-78
2022/08/24 02:55:18;;;;;;;5.35;1.90;;;;;;;15.96;100.00;100990.97;5188971;28;20468;-78
2022/08/24 02:57:49;;;;;;;9.27;1.70;;;;;;;16.30;100.00;100983.91;5191562;28;20036;-77
2022/08/24 03:00:21;;;;;;;3.33;1.45;;;;;;;16.22;100.00;100982.59;5188646;28;20021;-78
2022/08/24 03:02:53;;;;;;;4.93;1.95;;;;;;;16.18;100.00;100994.25;5183552;28;20029;-78
2022/08/24 03:05:24;;;;;;;3.53;1.80;;;;;;;15.73;100.00;100994.78;5191461;28;20288;-78
2022/08/24 03:07:55;;;;;;;4.38;1.80;;;;;;;15.61;100.00;100998.03;5187497;28;20569;-78
2022/08/24 03:10:25;;;;;;;4.20;1.80;;;;;;;15.70;100.00;101002.84;5192321;28;20029;-78
2022/08/24 03:12:57;;;;;;;4.22;1.98;;;;;;;15.78;100.00;101003.31;5189908;28;20076;-78
2022/08/24 03:15:28;;;;;;;5.03;2.10;;;;;;;15.80;100.00;100997.97;5183414;28;20507;-78
2022/08/24 03:17:59;;;;;;;6.35;1.90;;;;;;;15.72;100.00;101000.97;5186239;28;20060;-78
2022/08/24 03:20:30;;;;;;;4.57;1.80;;;;;;;15.83;100.00;101003.94;5187197;28;20033;-78
2022/08/24 03:23:00;;;;;;;3.92;1.75;;;;;;;16.14;100.00;101004.09;5186411;28;20383;-78
2022/08/24 03:25:31;;;;;;;4.80;2.03;;;;;;;16.16;100.00;101004.88;5189530;28;20030;-78
2022/08/24 03:28:02;;;;;;;5.15;2.10;;;;;;;16.06;100.00;101005.41;5185665;28;20036;-78
2022/08/24 03:30:32;;;;;;;5.65;2.15;;;;;;;15.84;100.00;100997.72;5184379;28;20057;-77
2022/08/24 03:33:04;;;;;;;5.70;1.75;;;;;;;15.72;100.00;101011.50;5190907;28;20267;-78
2022/08/24 03:35:34;;;;;;;6.53;1.90;;;;;;;16.00;100.00;101009.22;5188606;28;20021;-75
2022/08/24 03:38:05;;;;;;;3.05;1.48;;;;;;;15.94;100.00;101012.16;5188947;28;20083;-78
2022/08/24 03:40:35;;;;;;;8.00;1.90;;;;;;;15.80;100.00;101019.91;5188428;28;20519;-78
2022/08/24 03:43:06;;;;;;;4.68;1.83;;;;;;;15.64;100.00;101024.22;5182854;28;20392;-78
2022/08/24 03:45:36;;;;;;;3.58;1.70;;;;;;;15.61;100.00;101020.88;5181845;28;20061;-77
2022/08/24 03:48:07;;;;;;;4.63;1.90;;;;;;;15.69;100.00;101019.56;5180360;28;20590;-75
2022/08/24 03:50:37;;;;;;;4.13;1.75;;;;;;;15.78;100.00;101026.19;5185554;28;20108;-78
2022/08/24 03:53:07;;;;;;;4.75;1.80;;;;;;;15.96;100.00;101036.66;5189500;28;20056;-76
2022/08/24 03:55:37;;;;;;;5.30;1.70;;;;;;;16.10;100.00;101026.28;5188740;28;20022;-78
2022/08/24 03:58:08;;;;;;;2.65;1.70;;;;;;;16.12;100.00;101020.91;5187873;28;20041;-78
2022/08/24 04:00:41;;;;;;;3.58;1.73;;;;;;;15.98;100.00;101026.91;5190780;28;20021;-78
2022/08/24 04:03:13;;;;;;;4.82;1.77;;;;;;;15.97;100.00;101027.84;5189447;28;20061;-77
2022/08/24 04:05:44;;;;;;;4.25;1.60;;;;;;;16.01;100.00;101020.63;5193462;28;20021;-75
2022/08/24 04:08:14;;;;;;;4.78;1.92;;;;;;;15.94;100.00;101022.72;5190445;28;20021;-77
2022/08/24 04:10:45;;;;;;;3.65;1.50;;;;;;;15.60;100.00;101032.34;5194509;28;20028;-76
2022/08/24 04:13:16;;;;;;;3.33;1.70;;;;;;;15.83;100.00;101030.31;5189652;28;20025;-77
2022/08/24 04:15:49;;;;;;;2.80;1.65;;;;;;;15.68;100.00;101031.06;5189308;28;20026;-77
2022/08/24 04:18:19;;;;;;;3.55;1.55;;;;;;;15.84;100.00;101039.91;5183138;28;20025;-77
2022/08/24 04:20:49;;;;;;;5.13;1.73;;;;;;;15.50;100.00;101034.59;5192487;28;20033;-77
2022/08/24 04:23:20;;;;;;;4.00;1.83;;;;;;;15.33;100.00;101034.53;5193658;28;20037;-78
2022/08/24 04:25:50;;;;;;;4.85;1.98;;;;;;;15.14;100.00;101036.31;5191066;28;20463;-78
2022/08/24 04:28:22;;;;;;;5.63;2.00;;;;;;;15.53;100.00;101046.75;5183928;28;20487;-78
2022/08/24 04:30:52;;;;;;;3.78;1.98;;;;;;;15.09;100.00;101046.19;5194809;28;20041;-78
2022/08/24 04:33:23;;;;;;;6.03;1.90;;;;;;;14.99;100.00;101044.91;5191541;28;20381;-78
2022/08/24 04:35:53;;;;;;;4.30;1.92;;;;;;;15.24;100.00;101040.22;5194450;28;20034;-78
2022/08/24 04:38:24;;;;;;;6.53;1.90;;;;;;;15.15;100.00;101038.00;5190276;28;20117;-78
2022/08/24 04:40:54;;;;;;;5.22;2.30;;;;;;;15.20;100.00;101040.44;5194803;28;20598;-78
2022/08/24 04:43:25;;;;;;;5.40;1.92;;;;;;;15.47;100.00;101041.78;5193380;28;20538;-78
2022/08/24 04:45:55;;;;;;;4.25;2.20;;;;;;;15.29;100.00;101043.53;5191518;28;20038;-78
2022/08/24 04:48:26;;;;;;;5.18;2.10;;;;;;;15.56;100.00;101051.88;5190737;28;20258;-78
2022/08/24 04:51:02;;;;;;;4.00;1.92;;;;;;;15.77;100.00;101046.44;5192082;28;20041;-78
2022/08/24 04:53:33;;;;;;;4.10;1.90;;;;;;;15.96;100.00;101052.50;5193380;28;20028;-77
2022/08/24 04:56:12;;;;;;;3.75;2.30;;;;;;;16.09;100.00;101053.59;5192200;28;20080;-78
2022/08/24 04:58:44;;;;;;;3.92;2.20;;;;;;;16.29;100.00;101053.44;5190853;28;20018;-78
2022/08/24 05:01:18;;;;;;;6.45;2.30;;;;;;;16.10;100.00;101047.38;5191034;28;20116;-78
2022/08/24 05:03:50;;;;;;;5.57;2.20;;;;;;;15.93;100.00;101052.66;5194630;28;20025;-75
2022/08/24 05:06:23;;;;;;;7.13;2.17;;;;;;;15.86;100.00;101061.78;5188467;28;20026;-78
2022/08/24 05:08:54;;;;;;;2.88;1.90;;;;;;;16.22;100.00;101059.09;5186587;28;20041;-78
2022/08/24 05:11:25;;;;;;;8.68;2.30;;;;;;;16.34;100.00;101055.81;5194451;28;20031;-78
2022/08/24 05:13:56;;;;;;;5.60;1.92;;;;;;;16.54;100.00;101061.81;5191893;28;20217;-78
2022/08/24 05:16:26;;;;;;;4.53;2.05;;;;;;;16.78;100.00;101063.16;5188903;28;20558;-78
2022/08/24 05:18:57;;;;;;;4.32;2.10;;;;;;;16.83;100.00;101063.78;5181853;28;20038;-78
2022/08/24 05:21:29;;;;;;;5.57;2.17;;;;;;;17.60;98.96;101063.00;5192179;28;20033;-78
2022/08/24 05:24:00;;;;;;;2.88;1.70;;;;;;;18.71;90.28;101054.56;5193183;28;20021;-79
2022/08/24 05:26:30;;;;;;;6.05;1.95;;;;;;;20.77;80.82;101047.88;5194134;28;20987;-78
2022/08/24 05:29:01;;;;;;;5.22;2.05;;;;;;;21.13;78.22;101048.84;5190948;28;20037;-78
2022/08/24 05:31:32;;;;;;;4.32;1.50;;;;;;;21.81;78.11;101057.16;5188843;28;20041;-77
2022/08/24 05:34:03;;;;;;;4.13;1.50;;;;;;;24.07;68.77;101045.16;5190307;28;20060;-78
2022/08/24 05:36:39;;;;;;;3.55;1.50;;;;;;;24.20;66.53;101058.38;5189612;28;20067;-79
2022/08/24 05:39:12;;;;;;;5.18;1.88;;;;;;;22.79;70.35;101061.94;5192320;28;20034;-79
2022/08/24 05:41:43;;;;;;;4.35;1.40;;;;;;;23.21;71.51;101056.78;5188451;28;20206;-79
2022/08/24 05:44:15;;;;;;;5.60;1.50;;;;;;;25.01;67.54;101060.97;5189020;28;20028;-79
2022/08/24 05:46:46;;;;;;;3.40;1.67;;;;;;;25.99;63.53;101061.00;5187246;28;20029;-79
2022/08/24 05:49:16;;;;;;;3.08;1.33;;;;;;;25.35;64.77;101064.25;5181981;28;20021;-80
2022/08/24 05:51:46;;;;;;;3.38;1.30;;;;;;;23.84;70.63;101067.59;5194178;28;20025;-79
2022/08/24 05:54:17;;;;;;;3.53;1.55;;;;;;;22.58;73.45;101076.94;5191325;28;20032;-79
2022/08/24 05:56:48;;;;;;;3.75;1.38;;;;;;;21.72;76.43;101068.50;5186825;28;20031;-79
2022/08/24 05:59:18;;;;;;;3.85;1.60;;;;;;;21.17;78.15;101079.56;5185675;28;20040;-79
2022/08/24 06:01:48;;;;;;;3.63;1.40;;;;;;;21.03;79.00;101078.84;5190848;28;20048;-78
2022/08/24 06:04:19;;;;;;;6.75;1.60;;;;;;;20.51;80.72;101080.72;5191095;28;20028;-78
2022/08/24 06:06:50;;;;;;;8.02;2.15;;;;;;;20.62;79.35;101087.97;5191803;28;20117;-78
2022/08/24 06:09:20;;;;;;;5.47;2.50;;;;;;;20.41;80.22;101086.75;5190561;28;20029;-78
2022/08/24 06:11:51;;;;;;;4.35;2.08;;;;;;;20.01;82.15;101085.91;5186293;28;20097;-78
2022/08/24 06:14:21;;;;;;;4.93;2.20;;;;;;;19.96;84.43;101085.34;5181488;28;20435;-78
2022/08/24 06:16:52;;;;;;;8.38;2.38;;;;;;;19.83;85.88;101084.47;5186468;28;20038;-79
2022/08/24 06:19:23;;;;;;;6.03;2.30;;;;;;;19.62;87.85;101085.84;5185256;28;20026;-79
2022/08/24 06:21:54;;;;;;;5.65;2.15;;;;;;;19.72;87.64;101075.47;5188643;28;20052;-79
2022/08/24 06:27:21;;;;;;;5.30;1.90;;;;;;;19.73;86.83;101077.19;5189268;28;20179;-78
2022/08/24 06:29:58;;;;;;;5.40;2.38;;;;;;;19.91;87.84;101076.84;5185269;28;20030;-78
2022/08/24 06:32:29;;;;;;;6.28;2.08;;;;;;;19.78;89.96;101083.88;5195008;28;20040;-79
2022/08/24 06:34:59;;;;;;;5.97;2.28;;;;;;;19.76;90.79;101085.78;5190082;28;20029;-79
2022/08/24 06:37:29;;;;;;;6.57;2.10;;;;;;;21.22;86.22;101077.41;5191666;28;20534;-77
2022/08/24 06:40:00;;;;;;;6.20;2.00;;;;;;;23.70;73.98;101067.00;5193048;28;20060;-78
2022/08/24 06:42:31;;;;;;;2.92;1.50;;;;;;;25.47;69.88;101064.00;5191285;28;20036;-79
2022/08/24 06:45:02;;;;;;;6.55;1.98;;;;;;;26.36;65.79;101070.03;5201365;22;20045;-72
2022/08/24 06:47:32;;;;;;;4.65;1.67;;;;;;;27.30;63.56;101065.44;5184161;28;20029;-72
2022/08/24 06:50:03;;;;;;;4.25;1.67;;;;;;;27.40;63.85;101071.59;5183234;28;20025;-72
2022/08/24 06:52:35;;;;;;;6.65;1.52;;;;;;;28.31;64.54;101075.81;5185913;28;20029;-72
2022/08/24 06:55:06;;;;;;;7.65;1.60;;;;;;;29.72;60.23;101071.63;5189572;28;20487;-72
2022/08/24 06:57:36;;;;;;;3.90;1.50;;;;;;;30.33;59.09;101069.38;5187979;28;20030;-72
2022/08/24 07:00:09;;;;;;;3.38;1.27;;;;;;;30.25;57.60;101072.91;5189796;28;20526;-72
2022/08/24 07:02:40;;;;;;;4.20;1.73;;;;;;;30.68;57.43;101066.34;5188910;28;20037;-72
2022/08/24 07:05:10;;;;;;;5.85;1.48;;;;;;;30.77;57.22;101065.31;5189705;28;20030;-72
2022/08/24 07:07:41;;;;;;;9.63;1.35;;;;;;;31.16;56.18;101065.25;5187098;28;20100;-72
2022/08/24 07:10:11;;;;;;;5.95;1.50;;;;;;;30.17;58.95;101074.75;5189666;28;20546;-72
2022/08/24 07:12:42;;;;;;;6.95;1.70;;;;;;;30.36;59.06;101085.22;5188202;28;20060;-72
2022/08/24 07:15:12;;;;;;;4.03;1.50;;;;;;;31.51;55.19;101082.84;5189921;28;20072;-72
2022/08/24 07:17:42;;;;;;;3.47;1.47;;;;;;;32.17;54.71;101077.69;5180005;28;20364;-72
2022/08/24 07:20:13;;;;;;;5.80;1.50;;;;;;;31.53;55.69;101080.81;5185758;28;20276;-72
2022/08/24 07:22:44;;;;;;;6.03;1.65;;;;;;;33.17;52.32;101079.81;5189442;28;20646;-72
2022/08/24 07:25:14;;;;;;;3.33;1.30;;;;;;;32.31;53.17;101082.38;5190648;28;20029;-72
2022/08/24 07:27:45;;;;;;;6.45;1.60;;;;;;;31.46;54.35;101087.91;5186741;28;20407;-72
2022/08/24 07:30:16;;;;;;;5.22;1.55;;;;;;;32.63;52.10;101085.66;5189951;28;20033;-72
2022/08/24 07:32:46;;;;;;;7.55;1.63;;;;;;;31.45;55.02;101099.75;5187831;28;20455;-72
2022/08/24 07:35:17;;;;;;;9.43;1.80;;;;;;;31.43;54.71;101099.94;5191665;28;20602;-72
2022/08/24 07:37:48;;;;;;;3.97;1.50;;;;;;;32.76;52.66;101098.59;5186316;28;20357;-72
2022/08/24 07:40:18;;;;;;;10.20;1.65;;;;;;;32.72;52.29;101098.13;5189962;28;20037;-72
2022/08/24 07:42:50;;;;;;;3.87;1.40;;;;;;;32.21;54.27;101093.44;5186319;28;20028;-71
2022/08/24 07:45:21;;;;;;;5.07;1.67;;;;;;;32.94;53.09;101099.94;5182540;28;20281;-72
2022/08/24 07:47:52;;;;;;;3.53;1.55;;;;;;;32.17;52.76;101108.38;5181038;28;20423;-72
2022/08/24 07:50:22;;;;;;;4.25;1.50;;;;;;;32.61;52.96;101100.41;5185761;28;20554;-72
2022/08/24 07:52:52;;;;;;;3.70;1.37;;;;;;;32.21;52.86;101100.72;5188884;28;20030;-72
2022/08/24 07:55:23;;;;;;;6.50;1.60;;;;;;;32.12;53.81;101105.34;5190404;28;20750;-72
2022/08/24 07:57:53;;;;;;;3.90;1.60;;;;;;;31.83;54.47;101107.88;5186026;28;20276;-71
2022/08/24 08:00:24;;;;;;;4.00;1.50;;;;;;;33.22;51.74;101103.72;5189989;28;20070;-72
2022/08/24 08:02:55;;;;;;;6.07;1.58;;;;;;;33.32;51.82;101105.09;5187460;28;20026;-71
2022/08/24 08:05:25;;;;;;;4.63;1.55;;;;;;;32.46;52.30;101111.19;5190421;28;20395;-72
2022/08/24 08:07:56;;;;;;;5.77;1.60;;;;;;;32.60;52.89;101110.41;5185150;28;20252;-72
2022/08/24 08:10:29;;;;;;;5.85;1.45;;;;;;;32.70;52.69;101102.06;5187710;28;20330;-72
2022/08/24 08:12:59;;;;;;;3.38;1.40;;;;;;;33.33;51.83;101105.97;5185204;28;20025;-72
2022/08/24 08:15:30;;;;;;;3.57;1.47;;;;;;;33.87;50.87;101115.44;5189454;28;20028;-72
2022/08/24 08:18:01;;;;;;;2.80;1.70;;;;;;;34.78;49.53;101105.53;5176752;28;20029;-72
2022/08/24 08:20:32;;;;;;;5.35;1.75;;;;;;;34.34;50.74;101100.31;5178231;28;20033;-72
2022/08/24 08:25:56;;;;;;;3.60;1.63;;;;;;;34.37;49.86;101108.06;5183740;28;20613;-72
2022/08/24 08:28:32;;;;;;;5.53;1.60;;;;;;;32.95;51.61;101107.88;5183585;28;20120;-72
2022/08/24 08:31:03;;;;;;;4.60;1.60;;;;;;;33.38;50.82;101100.81;5182669;28;20404;-72
2022/08/24 08:33:35;;;;;;;3.28;1.58;;;;;;;34.06;49.90;101101.25;5184688;28;20042;-71
2022/08/24 08:36:12;;;;;;;4.65;1.45;;;;;;;34.06;49.78;101102.09;5185501;28;20436;-71
2022/08/24 08:38:42;;;;;;;5.55;1.40;;;;;;;33.49;52.05;101100.34;5183544;28;20033;-72
2022/08/24 08:41:18;;;;;;;4.15;1.40;;;;;;;33.06;50.76;101099.28;5189142;28;20041;-72
2022/08/24 08:44:07;;;;;;;5.68;1.30;;;;;;;33.30;51.62;101095.50;5186638;28;20129;-72
2022/08/24 08:46:56;;;;;;;3.42;1.63;;;;;;;33.89;48.43;101102.53;5182785;28;20029;-71
2022/08/24 08:50:02;;;;;;;6.30;1.45;;;;;;;33.41;50.41;101105.84;5177618;28;20041;-71
2022/08/24 08:52:51;;;;;;;;;;;;;;;33.06;50.05;101107.41;5156690;28;20040;-71
2022/08/24 08:55:27;;;;;;;4.68;1.25;;;;;;;32.60;49.18;101114.97;5184470;28;19912;-71
2022/08/24 08:58:17;;;;;;;4.43;1.35;;;;;;;33.74;48.80;101110.72;5190611;28;20098;-71
2022/08/24 09:01:09;;;;;;;4.90;1.48;;;;;;;33.68;48.50;101097.84;5194984;28;20445;-71
2022/08/24 09:04:18;;;;;;;3.28;1.17;;;;;;;33.65;48.17;101105.56;5190875;28;20045;-70
2022/08/24 09:07:09;;;;;;;4.75;1.27;;;;;;;32.91;47.68;101111.13;5192086;28;20030;-71
2022/08/24 09:10:07;;;;;;;2.90;1.08;;;;;;;32.62;47.78;101102.06;5189377;28;20518;-71
2022/08/24 09:12:37;;;;;;;4.03;1.08;;;;;;;31.80;50.38;101110.94;5188929;28;20144;-71
2022/08/24 09:15:28;;;;;;;4.73;1.40;;;;;;;32.04;49.83;101104.53;5186177;28;20220;-71
2022/08/24 09:18:16;;;;;;;4.90;1.30;;;;;;;32.35;49.83;101105.38;5178827;28;20491;-71
2022/08/24 09:20:59;;;;;;;4.07;1.10;;;;;;;31.56;49.89;101092.09;5190783;28;20057;-70
2022/08/24 09:23:55;;;;;;;3.50;1.08;;;;;;;33.45;47.26;101090.88;5188234;28;20064;-70
2022/08/24 09:26:50;;;;;;;6.80;1.20;;;;;;;32.40;48.42;101092.94;5186390;28;20025;-69
2022/08/24 09:29:41;;;;;;;6.00;1.30;;;;;;;30.56;51.57;101100.09;5185340;28;20390;-70
2022/08/24 09:32:37;;;;;;;4.40;1.10;;;;;;;30.86;51.57;101084.88;5188129;28;20029;-70
2022/08/24 09:35:14;;;;;;;3.33;1.30;;;;;;;29.95;52.36;101097.78;5183593;28;20553;-70
2022/08/24 09:37:59;;;;;;;6.13;1.40;;;;;;;29.62;53.01;101089.78;5184953;28;20034;-70
2022/08/24 09:40:41;;;;;;;2.35;1.17;;;;;;;29.80;53.03;101094.06;5186125;28;20453;-70
2022/08/24 09:43:14;;;;;;;3.83;1.17;;;;;;;30.03;53.12;101083.50;5184216;28;20503;-69
2022/08/24 09:46:12;;;;;;;7.78;1.58;;;;;;;29.72;54.13;101082.41;5183720;28;20065;-70
2022/08/24 09:49:01;;;;;;;3.30;1.10;;;;;;;29.58;53.36;101089.25;5188207;28;20053;-70
2022/08/24 09:51:44;;;;;;;3.70;1.33;;;;;;;29.39;54.41;101077.91;5187232;28;20499;-70
2022/08/24 09:54:17;;;;;;;4.70;1.40;;;;;;;29.18;53.94;101077.44;5186037;28;20116;-70
2022/08/24 09:56:50;;;;;;;3.47;1.25;;;;;;;29.13;52.14;101079.78;5183537;28;20217;-71
2022/08/24 09:59:51;;;;;;;3.03;1.30;;;;;;;29.16;53.47;101074.94;5182073;28;20038;-70
2022/08/24 10:02:53;;;;;;;7.13;1.30;;;;;;;29.09;54.70;101075.72;5183137;28;20100;-70
2022/08/24 10:05:38;;;;;;;5.63;1.35;;;;;;;28.87;53.96;101076.25;5184830;28;20041;-71
2022/08/24 10:08:43;;;;;;;4.90;1.30;;;;;;;28.95;55.17;101079.00;5179938;28;20029;-69
2022/08/24 10:11:35;;;;;;;3.38;1.15;;;;;;;29.04;53.93;101065.44;5184971;28;20410;-72
2022/08/24 10:14:05;;;;;;;3.22;1.30;;;;;;;28.91;54.25;101072.25;5184807;28;20041;-72
2022/08/24 10:16:41;;;;;;;3.70;1.17;;;;;;;29.04;53.87;101072.69;5183899;28;20661;-71
2022/08/24 10:19:36;;;;;;;3.13;1.15;;;;;;;29.03;53.32;101068.31;5185008;28;20666;-72
2022/08/24 10:22:32;;;;;;;6.38;1.30;;;;;;;29.20;54.67;101072.75;5172025;28;20065;-73
2022/08/24 10:25:14;;;;;;;4.65;1.13;;;;;;;29.14;53.67;101068.84;5182150;28;20053;-73
2022/08/24 10:27:53;;;;;;;4.05;1.10;;;;;;;29.25;53.86;101059.66;5181216;28;20036;-72
2022/08/24 10:30:32;;;;;;;2.50;1.10;;;;;;;28.95;53.43;101065.53;5185028;28;20029;-73
2022/08/24 10:33:18;;;;;;;6.90;1.30;;;;;;;28.74;53.81;101062.38;5185511;28;20030;-72
2022/08/24 10:35:54;;;;;;;5.28;1.67;;;;;;;28.83;53.51;101064.09;5184128;28;20041;-73
2022/08/24 10:41:31;;;;;;;5.05;1.33;;;;;;;28.79;53.17;101049.25;5182531;28;20065;-72
2022/08/24 10:44:36;;;;;;;5.18;1.20;;;;;;;29.06;53.86;101051.81;5188284;28;20067;-73
2022/08/24 10:47:29;;;;;;;4.00;1.13;;;;;;;29.15;54.32;101048.13;5183058;28;20034;-72
2022/08/24 10:50:18;;;;;;;2.70;1.30;;;;;;;29.14;53.42;101046.44;5184207;28;20041;-72
2022/08/24 10:53:08;;;;;;;6.35;1.30;;;;;;;29.07;53.84;101050.81;5186223;28;20045;-72
2022/08/24 10:55:39;;;;;;;3.55;1.30;;;;;;;29.16;54.69;101041.75;5187116;28;20080;-71
2022/08/24 10:58:43;;;;;;;4.97;1.50;;;;;;;29.13;54.33;101045.63;5186633;28;20061;-72
2022/08/24 11:01:28;;;;;;;5.32;1.30;;;;;;;29.18;55.05;101037.91;5188707;28;20487;-72
2022/08/24 11:03:58;;;;;;;5.43;1.23;;;;;;;28.86;54.19;101044.94;5183909;28;20053;-70
2022/08/24 11:06:37;;;;;;;2.30;1.10;;;;;;;28.41;53.16;101040.75;5188455;28;20045;-72
2022/08/24 11:09:13;;;;;;;6.13;1.30;;;;;;;28.65;54.22;101043.63;5186417;28;20029;-72
2022/08/24 11:11:47;;;;;;;5.65;1.30;;;;;;;28.90;55.89;101035.56;5186086;28;20103;-72
2022/08/24 11:14:29;;;;;;;4.30;1.40;;;;;;;28.85;54.15;101044.09;5188645;28;20021;-72
2022/08/24 11:17:15;;;;;;;3.05;1.38;;;;;;;28.93;53.53;101049.53;5180348;28;20037;-71
2022/08/24 11:19:45;;;;;;;;;;;;;;;29.07;55.67;101032.78;5183366;28;20100;-72
2022/08/24 11:22:30;;;;;;;2.27;1.20;;;;;;;29.28;54.08;101032.38;5183670;28;20015;-72
2022/08/24 11:25:22;;;;;;;3.70;1.75;;;;;;;29.08;54.28;101033.66;5184117;28;20342;-72
2022/08/24 11:28:01;;;;;;;4.75;1.50;;;;;;;29.09;53.95;101027.25;5177207;28;20658;-72
2022/08/24 11:30:38;;;;;;;3.90;1.33;;;;;;;29.20;55.00;101029.66;5182566;28;20041;-70
2022/08/24 11:33:43;;;;;;;4.95;1.20;;;;;;;29.06;54.20;101033.78;5182099;28;20400;-72
2022/08/24 11:36:20;;;;;;;5.38;1.30;;;;;;;29.03;54.02;101028.72;5188418;28;20149;-72
2022/08/24 11:39:15;;;;;;;5.32;1.50;;;;;;;29.13;53.59;101023.22;5181161;28;20566;-72
2022/08/24 11:41:55;;;;;;;3.50;1.40;;;;;;;29.09;53.84;101019.16;5185396;28;20041;-72
2022/08/24 11:44:44;;;;;;;7.35;1.52;;;;;;;29.10;53.23;101018.16;5179098;28;20124;-72
2022/08/24 11:47:42;;;;;;;2.50;1.38;;;;;;;29.00;53.94;101012.03;5177120;28;20372;-72
2022/08/24 11:50:25;;;;;;;2.70;1.30;;;;;;;29.00;53.66;101022.81;5183132;28;20037;-72
2022/08/24 11:53:02;;;;;;;6.85;1.60;;;;;;;29.15;55.12;101021.22;5178326;28;20353;-71
2022/08/24 11:55:42;;;;;;;5.70;1.10;;;;;;;29.05;52.84;101015.13;5182563;28;20065;-71
2022/08/24 11:58:36;;;;;;;3.65;1.33;;;;;;;29.04;52.58;101013.44;5180849;28;20443;-72
2022/08/24 12:01:31;;;;;;;5.50;1.48;;;;;;;28.92;54.62;101020.09;5184769;28;20058;-72
2022/08/24 12:04:37;;;;;;;2.90;1.40;;;;;;;28.65;53.41;101020.25;5178127;28;20125;-71
2022/08/24 12:07:13;;;;;;;4.20;1.50;;;;;;;28.55;53.21;101022.22;5166142;28;20034;-72
2022/08/24 12:09:48;;;;;;;3.63;1.40;;;;;;;28.75;54.46;101018.28;5184011;28;20044;-72
2022/08/24 12:12:26;;;;;;;;;;;;;;;28.58;53.51;101015.66;5184836;28;20030;-73
2022/08/24 12:15:04;;;;;;;3.90;1.30;;;;;;;28.80;53.19;101013.25;5180868;28;19913;-71